createdAt,value
2017-11-23T00:02:22.467Z,100410.14
2017-11-23T00:04:49.989Z,100412.69
2017-11-23T00:07:17.505Z,100414.50
2017-11-23T00:09:45.022Z,100413.70
2017-11-23T00:12:12.539Z,100412.50
2017-11-23T00:14:40.053Z,100413.02
2017-11-23T00:17:07.572Z,100413.08
2017-11-23T00:19:35.097Z,100411.33
2017-11-23T00:22:02.611Z,100413.13
2017-11-23T00:24:30.135Z,100419.92
2017-11-23T00:26:57.697Z,100421.25
2017-11-23T00:29:25.226Z,100415.11
2017-11-23T00:31:52.755Z,100417.36
2017-11-23T00:34:20.311Z,100419.16
2017-11-23T00:36:47.834Z,100416.91
2017-11-23T00:39:15.375Z,100427.24
2017-11-23T00:41:42.901Z,100425.99
2017-11-23T00:44:10.416Z,100422.00
2017-11-23T00:46:37.938Z,100416.70
2017-11-23T00:49:05.466Z,100415.45
2017-11-23T00:51:32.992Z,100415.92
2017-11-23T00:54:00.525Z,100412.38
2017-11-23T00:56:28.223Z,100416.35
2017-11-23T00:58:55.842Z,100412.38
2017-11-23T01:01:23.459Z,100414.59
2017-11-23T01:03:50.994Z,100419.45
2017-11-23T01:06:18.505Z,100410.16
2017-11-23T01:08:46.024Z,100405.30
2017-11-23T01:11:13.536Z,100409.31
2017-11-23T01:13:41.200Z,100398.66
2017-11-23T01:16:08.756Z,100400.44
2017-11-23T01:18:36.286Z,100400.88
2017-11-23T01:21:03.811Z,100400.42
2017-11-23T01:23:31.339Z,100394.64
2017-11-23T01:25:58.850Z,100391.79
2017-11-23T01:28:26.375Z,100388.12
2017-11-23T01:30:53.931Z,100388.80
2017-11-23T01:33:21.447Z,100380.89
2017-11-23T01:35:48.966Z,100386.14
2017-11-23T01:38:16.489Z,100385.19
2017-11-23T01:40:44.042Z,100388.34
2017-11-23T01:43:11.572Z,100383.60
2017-11-23T01:45:39.100Z,100378.80
2017-11-23T01:48:06.622Z,100380.50
2017-11-23T01:50:34.146Z,100373.02
2017-11-23T01:53:01.672Z,100372.55
2017-11-23T01:55:29.192Z,100368.03
2017-11-23T01:57:56.705Z,100362.40
2017-11-23T02:00:24.227Z,100360.66
2017-11-23T02:02:51.762Z,100363.79
2017-11-23T02:05:19.277Z,100359.34
2017-11-23T02:07:46.801Z,100352.68
2017-11-23T02:10:14.319Z,100350.62
2017-11-23T02:12:41.833Z,100344.92
2017-11-23T02:15:09.337Z,100349.84
2017-11-23T02:17:36.855Z,100347.17
2017-11-23T02:20:04.370Z,100339.20
2017-11-23T02:22:31.893Z,100339.22
2017-11-23T02:24:59.431Z,100337.09
2017-11-23T02:27:26.953Z,100335.34
2017-11-23T02:29:54.465Z,100339.34
2017-11-23T02:32:21.992Z,100323.77
2017-11-23T02:34:49.511Z,100325.66
2017-11-23T02:37:17.039Z,100326.90
2017-11-23T02:39:44.554Z,100322.97
2017-11-23T02:42:12.068Z,100329.99
2017-11-23T02:44:39.592Z,100325.16
2017-11-23T02:47:07.119Z,100322.97
2017-11-23T02:49:34.635Z,100318.97
2017-11-23T02:52:02.272Z,100315.36
2017-11-23T02:54:29.794Z,100309.20
2017-11-23T02:56:57.311Z,100308.06
2017-11-23T02:59:24.823Z,100310.81
2017-11-23T03:01:52.338Z,100304.16
2017-11-23T03:04:19.854Z,100312.66
2017-11-23T03:06:47.365Z,100317.38
2017-11-23T03:09:14.889Z,100310.70
2017-11-23T03:11:42.440Z,100306.38
2017-11-23T03:14:09.941Z,100309.45
2017-11-23T03:16:37.450Z,100301.61
2017-11-23T03:19:04.959Z,100306.91
2017-11-23T03:21:32.477Z,100305.05
2017-11-23T03:23:59.998Z,100305.21
2017-11-23T03:26:27.510Z,100306.23
2017-11-23T03:28:55.024Z,100304.56
2017-11-23T03:31:22.543Z,100295.55
2017-11-23T03:33:50.060Z,100290.91
2017-11-23T03:36:17.592Z,100293.98
2017-11-23T03:38:45.114Z,100303.52
2017-11-23T03:41:12.625Z,100296.70
2017-11-23T03:43:40.143Z,100303.61
2017-11-23T03:46:07.672Z,100298.06
2017-11-23T03:48:35.950Z,100303.05
2017-11-23T03:51:03.462Z,100298.22
2017-11-23T03:53:30.979Z,100301.87
2017-11-23T03:55:58.492Z,100304.94
2017-11-23T03:58:26.019Z,100309.02
2017-11-23T04:00:53.544Z,100306.12
2017-11-23T04:03:21.062Z,100297.97
2017-11-23T04:05:48.569Z,100295.70
2017-11-23T04:08:16.078Z,100306.05
2017-11-23T04:10:43.591Z,100295.52
2017-11-23T04:13:11.111Z,100288.74
2017-11-23T04:15:38.651Z,100289.83
2017-11-23T04:18:06.166Z,100282.73
2017-11-23T04:20:33.675Z,100283.17
2017-11-23T04:23:01.192Z,100282.45
2017-11-23T04:25:28.735Z,100274.09
2017-11-23T04:27:56.259Z,100266.94
2017-11-23T04:30:23.776Z,100275.33
2017-11-23T04:32:51.295Z,100274.93
2017-11-23T04:35:18.807Z,100279.02
2017-11-23T04:37:46.325Z,100273.22
2017-11-23T04:40:13.843Z,100284.94
2017-11-23T04:42:41.358Z,100280.56
2017-11-23T04:45:08.865Z,100276.19
2017-11-23T04:47:36.378Z,100282.56
2017-11-23T04:50:03.891Z,100281.94
2017-11-23T04:52:31.406Z,100274.41
2017-11-23T04:54:58.910Z,100279.34
2017-11-23T04:57:26.423Z,100277.45
2017-11-23T04:59:53.937Z,100266.41
2017-11-23T05:02:21.479Z,100258.45
2017-11-23T05:04:48.994Z,100267.15
2017-11-23T05:07:16.507Z,100257.39
2017-11-23T05:09:44.027Z,100270.68
2017-11-23T05:12:11.545Z,100264.79
2017-11-23T05:14:39.050Z,100277.41
2017-11-23T05:17:06.559Z,100270.58
2017-11-23T05:19:34.081Z,100274.84
2017-11-23T05:22:01.595Z,100275.20
2017-11-23T05:24:29.119Z,100270.98
2017-11-23T05:26:56.643Z,100268.28
2017-11-23T05:29:24.159Z,100269.72
2017-11-23T05:31:51.667Z,100268.32
2017-11-23T05:34:19.179Z,100274.55
2017-11-23T05:36:46.687Z,100277.75
2017-11-23T05:39:14.219Z,100276.22
2017-11-23T05:41:41.722Z,100267.88
2017-11-23T05:44:09.241Z,100262.95
2017-11-23T05:46:36.746Z,100270.42
2017-11-23T05:49:04.269Z,100265.75
2017-11-23T05:51:31.776Z,100254.89
2017-11-23T05:53:59.295Z,100255.66
2017-11-23T05:56:26.806Z,100262.62
2017-11-23T05:58:54.321Z,100270.88
2017-11-23T06:01:21.841Z,100281.80
2017-11-23T06:03:49.352Z,100281.47
2017-11-23T06:06:16.855Z,100285.50
2017-11-23T06:08:44.370Z,100282.62
2017-11-23T06:11:11.882Z,100282.42
2017-11-23T06:13:39.392Z,100281.08
2017-11-23T06:16:06.930Z,100292.27
2017-11-23T06:18:34.438Z,100300.81
2017-11-23T06:21:01.950Z,100306.30
2017-11-23T06:23:29.477Z,100298.31
2017-11-23T06:25:57.026Z,100290.05
2017-11-23T06:28:24.542Z,100279.33
2017-11-23T06:30:52.058Z,100272.64
2017-11-23T06:33:19.574Z,100269.62
2017-11-23T06:35:47.090Z,100265.73
2017-11-23T06:38:14.607Z,100262.94
2017-11-23T06:40:42.119Z,100271.66
2017-11-23T06:43:09.631Z,100269.47
2017-11-23T06:45:37.142Z,100267.27
2017-11-23T06:48:04.646Z,100270.19
2017-11-23T06:50:32.163Z,100276.38
2017-11-23T06:52:59.698Z,100275.58
2017-11-23T06:55:27.213Z,100270.95
2017-11-23T06:57:54.714Z,100273.50
2017-11-23T07:00:22.221Z,100276.97
2017-11-23T07:02:49.734Z,100277.41
2017-11-23T07:05:17.247Z,100271.48
2017-11-23T07:07:44.761Z,100271.02
2017-11-23T07:10:12.281Z,100275.31
2017-11-23T07:12:39.806Z,100266.75
2017-11-23T07:15:07.311Z,100270.61
2017-11-23T07:17:40.531Z,100268.60
2017-11-23T07:20:08.044Z,100270.16
2017-11-23T07:22:35.553Z,100270.47
2017-11-23T07:25:03.088Z,100266.40
2017-11-23T07:27:30.604Z,100262.36
2017-11-23T07:29:58.140Z,100258.61
2017-11-23T07:32:25.649Z,100252.39
2017-11-23T07:34:53.164Z,100251.16
2017-11-23T07:37:20.679Z,100239.63
2017-11-23T07:39:48.197Z,100237.78
2017-11-23T07:42:15.702Z,100229.61
2017-11-23T07:44:43.210Z,100232.76
2017-11-23T07:47:10.730Z,100237.63
2017-11-23T07:49:38.238Z,100241.16
2017-11-23T07:52:05.757Z,100235.37
2017-11-23T07:54:33.277Z,100233.91
2017-11-23T07:57:00.780Z,100241.81
2017-11-23T07:59:28.289Z,100249.30
2017-11-23T08:01:55.795Z,100251.45
2017-11-23T08:04:23.307Z,100254.41
2017-11-23T08:06:50.841Z,100253.42
2017-11-23T08:09:18.353Z,100254.52
2017-11-23T08:11:45.864Z,100257.89
2017-11-23T08:14:13.381Z,100265.22
2017-11-23T08:16:40.928Z,100257.73
2017-11-23T08:19:08.571Z,100256.77
2017-11-23T08:21:36.110Z,100259.37
2017-11-23T08:24:03.636Z,100269.95
2017-11-23T08:26:31.154Z,100262.47
2017-11-23T08:28:58.675Z,100258.33
2017-11-23T08:31:26.186Z,100256.00
2017-11-23T08:33:53.699Z,100245.88
2017-11-23T08:36:21.224Z,100257.76
2017-11-23T08:38:48.740Z,100250.92
2017-11-23T08:41:16.278Z,100250.02
2017-11-23T08:43:43.871Z,100247.48
2017-11-23T08:46:11.394Z,100262.24
2017-11-23T08:48:38.917Z,100264.58
2017-11-23T08:51:06.439Z,100263.20
2017-11-23T08:53:33.951Z,100282.20
2017-11-23T08:56:03.238Z,100278.88
2017-11-23T08:58:30.769Z,100269.83
2017-11-23T09:01:03.101Z,100261.14
2017-11-23T09:03:30.623Z,100264.13
2017-11-23T09:05:58.163Z,100266.81
2017-11-23T09:08:25.669Z,100259.23
2017-11-23T09:10:53.190Z,100268.14
2017-11-23T09:13:20.735Z,100268.73
2017-11-23T09:15:48.251Z,100268.32
2017-11-23T09:18:15.762Z,100264.41
2017-11-23T09:20:43.270Z,100259.23
2017-11-23T09:23:10.786Z,100261.42
2017-11-23T09:25:38.303Z,100267.64
2017-11-23T09:28:05.813Z,100261.59
2017-11-23T09:30:33.335Z,100285.75
2017-11-23T09:33:00.849Z,100286.92
2017-11-23T09:35:28.366Z,100281.03
2017-11-23T09:37:55.896Z,100279.69
2017-11-23T09:40:23.416Z,100270.36
2017-11-23T09:42:50.935Z,100259.55
2017-11-23T09:45:18.450Z,100242.30
2017-11-23T09:47:45.984Z,100241.95
2017-11-23T09:50:13.506Z,100251.90
2017-11-23T09:52:41.019Z,100238.42
2017-11-23T09:55:08.538Z,100242.02
2017-11-23T09:57:36.078Z,100234.53
2017-11-23T10:00:03.594Z,100269.41
2017-11-23T10:02:31.107Z,100269.80
2017-11-23T10:04:58.627Z,100260.47
2017-11-23T10:07:26.159Z,100253.37
2017-11-23T10:09:53.672Z,100251.89
2017-11-23T10:12:21.194Z,100239.98
2017-11-23T10:14:48.704Z,100244.52
2017-11-23T10:17:16.231Z,100238.47
2017-11-23T10:19:43.750Z,100233.39
2017-11-23T10:22:11.268Z,100233.23
2017-11-23T10:24:38.787Z,100223.07
2017-11-23T10:27:06.306Z,100235.86
2017-11-23T10:29:33.825Z,100236.72
2017-11-23T10:32:01.334Z,100229.52
2017-11-23T10:34:28.843Z,100227.31
2017-11-23T10:36:56.367Z,100224.83
2017-11-23T10:39:23.893Z,100207.53
2017-11-23T10:41:51.409Z,100218.84
2017-11-23T10:44:18.942Z,100225.08
2017-11-23T10:46:46.453Z,100217.80
2017-11-23T10:49:13.970Z,100211.42
2017-11-23T10:51:41.505Z,100198.88
2017-11-23T10:54:09.031Z,100197.98
2017-11-23T10:56:36.547Z,100202.50
2017-11-23T10:59:04.058Z,100198.52
2017-11-23T11:01:31.569Z,100205.83
2017-11-23T11:03:59.080Z,100221.94
2017-11-23T11:06:26.597Z,100212.04
2017-11-23T11:08:54.114Z,100201.55
2017-11-23T11:11:21.630Z,100207.06
2017-11-23T11:13:49.142Z,100189.22
2017-11-23T11:16:16.658Z,100195.78
2017-11-23T11:18:44.176Z,100196.10
2017-11-23T11:21:11.697Z,100190.68
2017-11-23T11:23:39.227Z,100186.95
2017-11-23T11:26:06.755Z,100183.36
2017-11-23T11:28:34.282Z,100193.03
2017-11-23T11:31:02.141Z,100185.46
2017-11-23T11:33:29.661Z,100190.61
2017-11-23T11:35:57.183Z,100182.61
2017-11-23T11:38:24.715Z,100184.11
2017-11-23T11:40:52.231Z,100198.25
2017-11-23T11:43:19.749Z,100195.06
2017-11-23T11:45:47.262Z,100201.80
2017-11-23T11:48:14.778Z,100201.14
2017-11-23T11:50:42.323Z,100199.45
2017-11-23T11:53:09.835Z,100191.27
2017-11-23T11:55:37.359Z,100184.06
2017-11-23T11:58:04.883Z,100189.17
2017-11-23T12:00:32.403Z,100184.63
2017-11-23T12:02:59.951Z,100189.26
2017-11-23T12:05:27.465Z,100185.72
2017-11-23T12:07:55.005Z,100179.09
2017-11-23T12:10:22.524Z,100189.54
2017-11-23T12:12:50.036Z,100184.69
2017-11-23T12:15:29.289Z,100184.86
2017-11-23T12:18:09.630Z,100184.96
2017-11-23T12:20:49.074Z,100189.11
2017-11-23T12:23:28.305Z,100185.30
2017-11-23T12:25:59.549Z,100177.23
2017-11-23T12:28:38.766Z,100166.97
2017-11-23T12:31:06.294Z,100171.53
2017-11-23T12:33:33.820Z,100168.63
2017-11-23T12:36:01.381Z,100170.56
2017-11-23T12:38:28.900Z,100171.52
2017-11-23T12:40:56.422Z,100178.45
2017-11-23T12:43:23.952Z,100174.95
2017-11-23T12:45:51.470Z,100173.03
2017-11-23T12:48:18.984Z,100166.48
2017-11-23T12:50:46.508Z,100157.08
2017-11-23T12:53:14.305Z,100148.37
2017-11-23T12:55:42.481Z,100152.13
2017-11-23T12:58:10.448Z,100152.49
2017-11-23T13:00:37.999Z,100158.52
2017-11-23T13:03:05.516Z,100170.52
2017-11-23T13:05:33.051Z,100172.44
2017-11-23T13:08:00.573Z,100168.73
2017-11-23T13:10:28.088Z,100171.95
2017-11-23T13:12:55.627Z,100167.06
2017-11-23T13:15:23.147Z,100169.17
2017-11-23T13:17:50.671Z,100170.61
2017-11-23T13:20:18.185Z,100169.75
2017-11-23T13:22:45.698Z,100174.11
2017-11-23T13:25:13.215Z,100170.56
2017-11-23T13:27:40.762Z,100179.85
2017-11-23T13:30:08.278Z,100181.41
2017-11-23T13:32:35.810Z,100177.33
2017-11-23T13:35:03.355Z,100186.09
2017-11-23T13:37:30.904Z,100185.50
2017-11-23T13:39:58.423Z,100183.73
2017-11-23T13:42:25.957Z,100186.42
2017-11-23T13:44:53.503Z,100172.48
2017-11-23T13:47:21.028Z,100177.38
2017-11-23T13:49:48.575Z,100186.99
2017-11-23T13:52:16.108Z,100174.89
2017-11-23T13:54:43.643Z,100188.44
2017-11-23T13:57:11.167Z,100179.63
2017-11-23T13:59:38.730Z,100183.17
2017-11-23T14:02:06.250Z,100191.23
2017-11-23T14:04:33.776Z,100211.13
2017-11-23T14:07:01.311Z,100221.44
2017-11-23T14:09:28.854Z,100205.48
2017-11-23T14:11:56.367Z,100202.84
2017-11-23T14:14:23.887Z,100216.78
2017-11-23T14:16:51.401Z,100221.17
2017-11-23T14:19:18.918Z,100209.63
2017-11-23T14:21:46.430Z,100200.15
2017-11-23T14:24:13.955Z,100195.58
2017-11-23T14:26:41.467Z,100187.79
2017-11-23T14:29:08.982Z,100205.63
2017-11-23T14:31:36.497Z,100202.80
2017-11-23T14:34:04.024Z,100193.37
2017-11-23T14:36:31.541Z,100201.23
2017-11-23T14:38:59.059Z,100212.38
2017-11-23T14:41:26.637Z,100209.22
2017-11-23T14:43:54.155Z,100216.98
2017-11-23T14:46:21.690Z,100211.89
2017-11-23T14:48:49.200Z,100214.35
2017-11-23T14:51:16.716Z,100225.28
2017-11-23T14:53:44.239Z,100233.63
2017-11-23T14:56:11.764Z,100237.32
2017-11-23T14:58:39.287Z,100237.97
2017-11-23T15:01:06.804Z,100252.58
2017-11-23T15:03:34.321Z,100258.07
2017-11-23T15:06:01.838Z,100260.98
2017-11-23T15:08:29.347Z,100269.67
2017-11-23T15:10:56.903Z,100264.23
2017-11-23T15:13:24.415Z,100269.61
2017-11-23T15:15:51.929Z,100267.03
2017-11-23T15:18:19.447Z,100266.16
2017-11-23T15:20:46.967Z,100272.66
2017-11-23T15:23:14.498Z,100278.06
2017-11-23T15:25:42.023Z,100273.89
2017-11-23T15:28:09.536Z,100274.94
2017-11-23T15:30:37.050Z,100271.84
2017-11-23T15:33:04.567Z,100273.50
2017-11-23T15:35:32.080Z,100275.64
2017-11-23T15:37:59.607Z,100281.08
2017-11-23T15:40:27.133Z,100289.32
2017-11-23T15:42:54.650Z,100287.64
2017-11-23T15:45:22.159Z,100293.12
2017-11-23T15:47:49.679Z,100285.36
2017-11-23T15:50:17.191Z,100281.28
2017-11-23T15:52:44.710Z,100290.83
2017-11-23T15:55:12.249Z,100295.96
2017-11-23T15:57:39.768Z,100289.41
2017-11-23T16:00:07.331Z,100288.09
2017-11-23T16:02:34.892Z,100299.14
2017-11-23T16:05:02.403Z,100300.48
2017-11-23T16:07:29.915Z,100296.19
2017-11-23T16:09:57.425Z,100301.78
2017-11-23T16:12:25.010Z,100289.69
2017-11-23T16:14:52.824Z,100298.07
2017-11-23T16:17:20.440Z,100296.73
2017-11-23T16:19:47.954Z,100304.83
2017-11-23T16:22:15.472Z,100303.72
2017-11-23T16:24:42.998Z,100314.34
2017-11-23T16:27:10.517Z,100321.25
2017-11-23T16:29:38.045Z,100327.91
2017-11-23T16:32:05.566Z,100326.51
2017-11-23T16:34:33.095Z,100327.83
2017-11-23T16:37:03.498Z,100321.55
2017-11-23T16:39:31.362Z,100319.98
2017-11-23T16:42:00.687Z,100325.48
2017-11-23T16:47:54.526Z,100339.23
2017-11-23T16:50:27.618Z,100344.33
2017-11-23T16:53:00.759Z,100339.42
2017-11-23T16:55:33.932Z,100342.59
2017-11-23T17:01:09.063Z,100340.95
2017-11-23T17:03:42.250Z,100341.62
2017-11-23T17:06:15.469Z,100356.83
2017-11-23T17:11:56.084Z,100356.31
2017-11-23T17:14:42.359Z,100367.29
2017-11-23T17:17:15.516Z,100377.22
2017-11-23T17:19:43.038Z,100377.88
2017-11-23T17:22:10.594Z,100387.09
2017-11-23T17:24:38.129Z,100381.38
2017-11-23T17:27:05.673Z,100383.78
2017-11-23T17:29:33.229Z,100372.87
2017-11-23T17:32:00.795Z,100389.75
2017-11-23T17:34:28.304Z,100391.66
2017-11-23T17:36:55.822Z,100395.94
2017-11-23T17:39:23.351Z,100387.86
2017-11-23T17:41:50.869Z,100391.70
2017-11-23T17:44:18.386Z,100396.27
2017-11-23T17:46:46.003Z,100393.19
2017-11-23T17:49:13.614Z,100394.64
2017-11-23T17:51:41.649Z,100391.56
2017-11-23T17:54:09.555Z,100394.25
2017-11-23T17:56:37.461Z,100393.66
2017-11-23T17:59:05.380Z,100398.23
2017-11-23T18:01:33.065Z,100403.33
2017-11-23T18:04:00.848Z,100408.37
2017-11-23T18:06:28.802Z,100410.14
2017-11-23T18:08:57.165Z,100413.83
2017-11-23T18:11:25.049Z,100411.64
2017-11-23T18:13:52.752Z,100421.19
2017-11-23T18:16:22.118Z,100420.22
2017-11-23T18:18:49.985Z,100417.88
2017-11-23T18:21:18.002Z,100412.94
2017-11-23T18:23:46.133Z,100414.02
2017-11-23T18:26:14.580Z,100412.81
2017-11-23T18:28:42.589Z,100413.81
2017-11-23T18:31:10.301Z,100420.72
2017-11-23T18:33:38.185Z,100419.08
2017-11-23T18:36:06.741Z,100404.27
2017-11-23T18:38:34.758Z,100411.62
2017-11-23T18:41:03.581Z,100415.02
2017-11-23T18:43:31.536Z,100420.74
2017-11-23T18:45:59.494Z,100415.09
2017-11-23T18:48:27.862Z,100417.59
2017-11-23T18:50:56.048Z,100418.71
2017-11-23T18:53:23.746Z,100432.88
2017-11-23T18:55:51.592Z,100433.89
2017-11-23T18:58:19.118Z,100427.27
2017-11-23T19:00:46.634Z,100422.52
2017-11-23T19:03:14.147Z,100432.63
2017-11-23T19:05:41.673Z,100427.26
2017-11-23T19:08:09.183Z,100432.88
2017-11-23T19:10:36.692Z,100441.55
2017-11-23T19:13:04.228Z,100442.66
2017-11-23T19:15:31.743Z,100441.59
2017-11-23T19:17:59.255Z,100446.83
2017-11-23T19:20:26.776Z,100455.50
2017-11-23T19:22:54.286Z,100452.43
2017-11-23T19:25:21.803Z,100454.50
2017-11-23T19:27:49.314Z,100462.36
2017-11-23T19:30:16.840Z,100471.08
2017-11-23T19:32:44.363Z,100470.02
2017-11-23T19:35:11.880Z,100468.03
2017-11-23T19:37:39.387Z,100470.24
2017-11-23T19:40:06.901Z,100468.95
2017-11-23T19:42:34.415Z,100476.25
2017-11-23T19:45:01.931Z,100481.32
2017-11-23T19:47:29.455Z,100481.02
2017-11-23T19:49:56.970Z,100476.57
2017-11-23T19:52:24.488Z,100485.44
2017-11-23T19:54:52.008Z,100487.00
2017-11-23T19:57:19.524Z,100494.24
2017-11-23T19:59:47.036Z,100479.92
2017-11-23T20:02:14.552Z,100492.58
2017-11-23T20:04:42.074Z,100490.33
2017-11-23T20:07:09.604Z,100488.84
2017-11-23T20:09:37.130Z,100490.05
2017-11-23T20:12:04.642Z,100485.89
2017-11-23T20:14:32.162Z,100497.01
2017-11-23T20:16:59.670Z,100499.59
2017-11-23T20:19:27.190Z,100502.69
2017-11-23T20:21:54.714Z,100503.06
2017-11-23T20:24:22.226Z,100501.50
2017-11-23T20:26:49.744Z,100505.66
2017-11-23T20:29:17.268Z,100506.00
2017-11-23T20:31:45.060Z,100512.09
2017-11-23T20:34:12.846Z,100509.73
2017-11-23T20:36:40.917Z,100512.14
2017-11-23T20:39:09.411Z,100519.05
2017-11-23T20:41:37.797Z,100522.11
2017-11-23T20:44:05.955Z,100518.71
2017-11-23T20:46:33.606Z,100521.34
2017-11-23T20:49:01.575Z,100525.31
2017-11-23T20:51:29.313Z,100523.02
2017-11-23T20:53:56.906Z,100534.54
2017-11-23T20:56:24.419Z,100526.28
2017-11-23T20:58:51.940Z,100530.41
2017-11-23T21:01:19.479Z,100538.33
2017-11-23T21:03:47.868Z,100539.52
2017-11-23T21:06:16.011Z,100538.08
2017-11-23T21:08:44.318Z,100542.30
2017-11-23T21:11:11.987Z,100548.06
2017-11-23T21:13:39.857Z,100554.20
2017-11-23T21:16:07.383Z,100554.20
2017-11-23T21:18:35.183Z,100566.29
2017-11-23T21:21:03.033Z,100571.04
2017-11-23T21:23:30.901Z,100577.28
2017-11-23T21:25:58.994Z,100570.70
2017-11-23T21:28:26.717Z,100578.19
2017-11-23T21:30:54.312Z,100572.38
2017-11-23T21:33:21.826Z,100578.95
2017-11-23T21:35:49.351Z,100581.74
2017-11-23T21:38:16.864Z,100591.48
2017-11-23T21:40:44.388Z,100589.61
2017-11-23T21:43:12.180Z,100592.16
2017-11-23T21:45:39.697Z,100597.72
2017-11-23T21:48:07.215Z,100592.16
2017-11-23T21:50:34.734Z,100585.86
2017-11-23T21:53:02.252Z,100581.59
2017-11-23T21:55:29.882Z,100583.50
2017-11-23T21:57:57.442Z,100599.41
2017-11-23T22:00:24.963Z,100605.07
2017-11-23T22:02:52.485Z,100604.34
2017-11-23T22:05:20.000Z,100613.56
2017-11-23T22:07:47.523Z,100617.21
2017-11-23T22:10:15.154Z,100618.55
2017-11-23T22:12:42.673Z,100628.83
2017-11-23T22:15:10.191Z,100630.31
2017-11-23T22:17:37.714Z,100637.33
2017-11-23T22:20:05.246Z,100636.38
2017-11-23T22:22:32.774Z,100649.56
2017-11-23T22:25:00.303Z,100649.85
2017-11-23T22:27:27.825Z,100650.24
2017-11-23T22:29:56.214Z,100648.98
2017-11-23T22:32:23.737Z,100658.35
2017-11-23T22:34:52.030Z,100661.52
2017-11-23T22:37:19.558Z,100648.17
2017-11-23T22:39:47.732Z,100644.19
2017-11-23T22:42:15.288Z,100648.31
2017-11-23T22:44:42.800Z,100647.06
2017-11-23T22:47:10.323Z,100657.16
2017-11-23T22:49:37.852Z,100665.50
2017-11-23T22:52:05.365Z,100668.19
2017-11-23T22:54:32.973Z,100667.33
2017-11-23T22:57:00.483Z,100663.42
2017-11-23T22:59:28.086Z,100670.45
2017-11-23T23:01:55.616Z,100674.95
2017-11-23T23:04:23.621Z,100682.50
2017-11-23T23:06:51.166Z,100685.70
2017-11-23T23:09:18.725Z,100684.64
2017-11-23T23:11:46.237Z,100675.34
2017-11-23T23:14:13.752Z,100682.05
2017-11-23T23:16:41.302Z,100675.20
2017-11-23T23:19:08.822Z,100676.63
2017-11-23T23:21:36.343Z,100675.34
2017-11-23T23:24:03.864Z,100676.25
2017-11-23T23:26:31.383Z,100680.38
2017-11-23T23:28:58.909Z,100677.21
2017-11-23T23:31:26.432Z,100673.66
2017-11-23T23:33:54.035Z,100675.48
2017-11-23T23:36:21.628Z,100677.64
2017-11-23T23:38:49.259Z,100682.50
2017-11-23T23:41:16.802Z,100686.09
2017-11-23T23:43:44.321Z,100684.74
2017-11-23T23:46:11.833Z,100682.92
2017-11-23T23:48:39.346Z,100670.84
2017-11-23T23:51:06.863Z,100673.02
2017-11-23T23:53:34.412Z,100671.59
2017-11-23T23:56:01.926Z,100665.34
2017-11-23T23:58:29.456Z,100665.02
